createdAt,value
2019-04-28T00:01:41.069Z,12.53
2019-04-28T00:04:11.449Z,16.62
2019-04-28T00:06:41.666Z,9.48
2019-04-28T00:09:11.818Z,12.90
2019-04-28T00:11:41.739Z,11.00
2019-04-28T00:14:12.003Z,11.90
2019-04-28T00:16:41.160Z,11.18
2019-04-28T00:19:11.039Z,14.93
2019-04-28T00:21:51.688Z,10.72
2019-04-28T00:24:28.005Z,15.40
2019-04-28T00:26:57.996Z,11.25
2019-04-28T00:29:37.670Z,15.30
2019-04-28T00:31:56.493Z,12.37
2019-04-28T00:34:24.942Z,12.03
2019-04-28T00:36:54.928Z,12.93
2019-04-28T00:39:23.394Z,13.80
2019-04-28T00:41:51.796Z,12.07
2019-04-28T00:44:21.807Z,10.20
2019-04-28T00:46:51.189Z,12.73
2019-04-28T00:49:21.369Z,13.43
2019-04-28T00:51:51.346Z,15.70
2019-04-28T00:54:21.717Z,11.83
2019-04-28T00:56:51.578Z,12.97
2019-04-28T00:59:21.582Z,14.67
2019-04-28T01:01:54.498Z,17.07
2019-04-28T01:04:22.913Z,12.88
2019-04-28T01:06:51.962Z,14.10
2019-04-28T01:09:21.773Z,15.78
2019-04-28T01:11:51.103Z,13.68
2019-04-28T01:14:21.354Z,12.58
2019-04-28T01:17:00.237Z,10.03
2019-04-28T01:19:30.250Z,15.43
2019-04-28T01:22:10.306Z,10.30
2019-04-28T01:24:39.876Z,16.23
2019-04-28T01:27:12.628Z,11.53
2019-04-28T01:29:41.041Z,15.25
2019-04-28T01:32:22.936Z,20.43
2019-04-28T01:34:51.352Z,13.75
2019-04-28T01:37:19.791Z,14.78
2019-04-28T01:39:49.637Z,12.82
2019-04-28T01:42:19.848Z,11.18
2019-04-28T01:44:49.464Z,12.98
2019-04-28T01:47:18.060Z,14.80
2019-04-28T01:49:46.504Z,11.95
2019-04-28T01:52:14.926Z,11.22
2019-04-28T01:54:43.368Z,19.73
2019-04-28T01:57:11.787Z,16.02
2019-04-28T01:59:40.461Z,12.90
2019-04-28T02:02:10.207Z,20.30
2019-04-28T02:04:59.881Z,16.12
2019-04-28T02:07:30.647Z,17.32
2019-04-28T02:10:00.569Z,13.43
2019-04-28T02:12:30.236Z,13.37
2019-04-28T02:15:00.634Z,12.40
2019-04-28T02:17:30.490Z,12.15
2019-04-28T02:20:00.626Z,19.53
2019-04-28T02:22:31.784Z,15.95
2019-04-28T02:25:00.412Z,17.10
2019-04-28T02:27:30.228Z,14.45
2019-04-28T02:30:00.078Z,13.38
2019-04-28T02:32:30.945Z,13.37
2019-04-28T02:35:01.322Z,12.67
2019-04-28T02:37:30.654Z,14.98
2019-04-28T02:40:02.889Z,13.67
2019-04-28T02:42:30.993Z,13.20
2019-04-28T02:45:00.471Z,14.47
2019-04-28T02:47:31.542Z,17.03
2019-04-28T02:50:01.049Z,19.60
2019-04-28T02:52:47.223Z,12.15
2019-04-28T02:55:15.664Z,18.20
2019-04-28T02:57:44.083Z,13.60
2019-04-28T03:00:12.526Z,15.20
2019-04-28T03:02:41.572Z,16.17
2019-04-28T03:05:11.652Z,21.23
2019-04-28T03:07:41.118Z,15.75
2019-04-28T03:10:11.046Z,13.03
2019-04-28T03:12:41.466Z,16.37
2019-04-28T03:15:10.402Z,14.53
2019-04-28T03:17:40.764Z,15.15
2019-04-28T03:20:10.990Z,11.13
2019-04-28T03:22:40.740Z,14.20
2019-04-28T03:25:13.457Z,13.93
2019-04-28T03:27:54.926Z,17.80
2019-04-28T03:30:43.849Z,18.05
2019-04-28T03:33:18.418Z,10.98
2019-04-28T03:35:44.169Z,11.60
2019-04-28T03:38:12.846Z,16.75
2019-04-28T03:40:41.601Z,13.10
2019-04-28T03:43:10.951Z,12.85
2019-04-28T03:45:56.910Z,14.30
2019-04-28T03:48:25.333Z,12.55
2019-04-28T03:50:53.745Z,13.85
2019-04-28T03:53:22.206Z,16.62
2019-04-28T03:55:51.231Z,12.00
2019-04-28T03:58:21.855Z,11.45
2019-04-28T04:00:50.797Z,12.93
2019-04-28T04:03:21.123Z,12.73
2019-04-28T04:05:50.855Z,13.53
2019-04-28T04:08:20.987Z,10.30
2019-04-28T04:11:03.096Z,10.40
2019-04-28T04:13:33.267Z,11.45
2019-04-28T04:16:06.069Z,16.67
2019-04-28T04:18:36.073Z,10.23
2019-04-28T04:21:04.489Z,17.00
2019-04-28T04:23:32.933Z,14.28
2019-04-28T04:26:01.897Z,15.23
2019-04-28T04:28:30.529Z,17.52
2019-04-28T04:31:02.427Z,12.90
2019-04-28T04:33:31.018Z,18.52
2019-04-28T04:36:01.605Z,23.77
2019-04-28T04:38:31.169Z,12.28
2019-04-28T04:41:01.466Z,12.65
2019-04-28T04:43:30.990Z,14.38
2019-04-28T04:46:16.235Z,12.60
2019-04-28T04:48:44.661Z,10.08
2019-04-28T04:51:13.095Z,15.93
2019-04-28T04:53:41.510Z,12.03
2019-04-28T04:56:10.478Z,9.55
2019-04-28T04:58:40.678Z,13.53
2019-04-28T05:01:10.810Z,10.77
2019-04-28T05:03:43.588Z,16.40
2019-04-28T05:06:29.899Z,11.60
2019-04-28T05:08:59.874Z,13.98
2019-04-28T05:11:29.994Z,8.87
2019-04-28T05:13:59.635Z,10.30
2019-04-28T05:16:29.766Z,10.50
2019-04-28T05:19:00.049Z,13.45
2019-04-28T05:21:32.782Z,9.43
2019-04-28T05:24:15.796Z,12.30
2019-04-28T05:26:47.678Z,12.70
2019-04-28T05:29:13.506Z,8.05
2019-04-28T05:31:41.924Z,11.03
2019-04-28T05:34:11.639Z,11.80
2019-04-28T05:36:44.405Z,12.23
2019-04-28T05:39:10.577Z,13.00
2019-04-28T05:41:41.323Z,10.08
2019-04-28T05:44:10.135Z,10.65
2019-04-28T05:46:40.211Z,9.60
2019-04-28T05:49:13.107Z,9.70
2019-04-28T05:51:43.097Z,11.83
2019-04-28T05:54:22.056Z,12.40
2019-04-28T05:57:02.471Z,14.40
2019-04-28T05:59:44.484Z,15.70
2019-04-28T06:02:21.922Z,13.60
2019-04-28T06:04:50.153Z,17.32
2019-04-28T06:07:30.501Z,14.35
2019-04-28T06:10:00.161Z,11.88
2019-04-28T06:12:31.659Z,12.03
2019-04-28T06:15:00.139Z,12.07
2019-04-28T06:17:29.493Z,12.07
2019-04-28T06:19:59.954Z,10.45
2019-04-28T06:22:28.216Z,14.15
2019-04-28T06:24:56.624Z,15.78
2019-04-28T06:27:25.056Z,16.30
2019-04-28T06:29:53.497Z,14.43
2019-04-28T06:32:21.913Z,14.85
2019-04-28T06:34:50.471Z,13.13
2019-04-28T06:37:18.941Z,16.07
2019-04-28T06:39:47.499Z,11.57
2019-04-28T06:42:15.968Z,14.78
2019-04-28T06:44:44.426Z,16.17
2019-04-28T06:47:16.528Z,13.75
2019-04-28T06:49:46.329Z,12.58
2019-04-28T06:52:15.847Z,15.95
2019-04-28T06:54:44.265Z,14.30
2019-04-28T06:57:12.708Z,16.73
2019-04-28T06:59:41.130Z,14.28
2019-04-28T07:02:09.573Z,17.98
2019-04-28T07:04:37.998Z,16.25
2019-04-28T07:07:06.516Z,17.67
2019-04-28T07:09:36.240Z,16.20
2019-04-28T07:12:05.868Z,17.82
2019-04-28T07:14:34.328Z,18.80
2019-04-28T07:17:02.851Z,17.73
2019-04-28T07:19:33.416Z,21.15
2019-04-28T07:22:11.528Z,15.08
2019-04-28T07:24:39.971Z,18.12
2019-04-28T07:27:08.593Z,18.95
2019-04-28T07:29:37.040Z,16.77
2019-04-28T07:32:05.468Z,19.57
2019-04-28T07:34:33.917Z,23.75
2019-04-28T07:37:02.346Z,14.93
2019-04-28T07:39:30.796Z,18.52
2019-04-28T07:41:59.217Z,16.23
2019-04-28T07:44:27.669Z,16.65
2019-04-28T07:46:56.091Z,19.50
2019-04-28T07:49:24.533Z,15.25
2019-04-28T07:51:54.549Z,18.57
2019-04-28T07:54:23.269Z,19.87
2019-04-28T07:56:51.715Z,20.27
2019-04-28T07:59:20.137Z,21.65
2019-04-28T08:01:48.584Z,18.17
2019-04-28T08:04:17.001Z,14.65
2019-04-28T08:06:45.436Z,18.57
2019-04-28T08:09:15.444Z,17.05
2019-04-28T08:11:43.887Z,17.98
2019-04-28T08:14:12.316Z,16.57
2019-04-28T08:16:40.756Z,17.57
2019-04-28T08:19:09.172Z,20.68
2019-04-28T08:21:37.613Z,17.62
2019-04-28T08:24:06.034Z,19.32
2019-04-28T08:26:36.304Z,21.45
2019-04-28T08:29:04.555Z,17.92
2019-04-28T08:31:52.513Z,16.12
2019-04-28T08:34:22.428Z,22.42
2019-04-28T08:36:50.867Z,19.43
2019-04-28T08:39:19.293Z,20.82
2019-04-28T08:41:47.738Z,17.48
2019-04-28T08:44:16.156Z,14.53
2019-04-28T08:47:03.962Z,15.80
2019-04-28T08:49:32.389Z,18.40
2019-04-28T08:52:00.833Z,17.92
2019-04-28T08:54:29.256Z,18.65
2019-04-28T08:56:57.703Z,29.05
2019-04-28T08:59:26.154Z,14.33
2019-04-28T09:01:54.622Z,20.45
2019-04-28T09:04:23.117Z,13.22
2019-04-28T09:06:51.551Z,17.07
2019-04-28T09:09:22.990Z,16.57
2019-04-28T09:11:51.518Z,16.35
2019-04-28T09:14:19.955Z,19.12
2019-04-28T09:16:48.394Z,15.38
2019-04-28T09:19:16.844Z,14.00
2019-04-28T09:21:45.269Z,18.02
2019-04-28T09:24:13.689Z,19.02
2019-04-28T09:26:42.128Z,12.37
2019-04-28T09:29:10.562Z,17.23
2019-04-28T09:31:39.012Z,13.30
2019-04-28T09:34:07.425Z,12.82
2019-04-28T09:36:35.875Z,15.05
2019-04-28T09:39:05.805Z,20.70
2019-04-28T09:41:35.390Z,19.03
2019-04-28T09:44:05.441Z,15.58
2019-04-28T09:46:35.457Z,13.32
2019-04-28T09:49:03.900Z,12.37
2019-04-28T09:51:32.345Z,16.32
2019-04-28T09:54:00.796Z,14.13
2019-04-28T09:56:29.209Z,15.32
2019-04-28T09:59:17.004Z,18.32
2019-04-28T10:01:45.424Z,18.73
2019-04-28T10:04:13.867Z,14.40
2019-04-28T10:06:42.293Z,12.40
2019-04-28T10:09:10.736Z,16.25
2019-04-28T10:11:39.156Z,16.25
2019-04-28T10:14:07.597Z,17.20
2019-04-28T10:16:36.021Z,14.63
2019-04-28T10:19:04.457Z,12.15
2019-04-28T10:21:32.874Z,15.10
2019-04-28T10:24:01.317Z,15.20
2019-04-28T10:26:29.755Z,15.45
2019-04-28T10:28:58.177Z,12.43
2019-04-28T10:31:26.609Z,13.05
2019-04-28T10:33:56.592Z,12.78
2019-04-28T10:36:25.136Z,15.95
2019-04-28T10:38:55.122Z,14.40
2019-04-28T10:41:34.054Z,14.75
2019-04-28T10:44:02.472Z,18.20
2019-04-28T10:46:30.915Z,19.98
2019-04-28T10:48:59.324Z,19.95
2019-04-28T10:51:27.766Z,12.07
2019-04-28T10:53:56.182Z,15.50
2019-04-28T10:56:24.618Z,15.88
2019-04-28T10:58:53.831Z,13.40
2019-04-28T11:01:22.254Z,12.95
2019-04-28T11:03:52.251Z,12.53
2019-04-28T11:06:20.683Z,12.37
2019-04-28T11:09:06.896Z,11.40
2019-04-28T11:11:35.417Z,11.73
2019-04-28T11:14:03.853Z,13.85
2019-04-28T11:16:33.866Z,12.00
2019-04-28T11:19:02.295Z,12.60
2019-04-28T11:21:30.712Z,12.58
2019-04-28T11:23:59.153Z,13.65
2019-04-28T11:26:27.590Z,16.00
2019-04-28T11:28:56.328Z,13.88
2019-04-28T11:31:24.739Z,16.05
2019-04-28T11:33:54.748Z,11.15
2019-04-28T11:36:23.164Z,16.00
2019-04-28T11:38:51.586Z,16.90
2019-04-28T11:41:20.031Z,16.93
2019-04-28T11:43:48.449Z,16.23
2019-04-28T11:46:18.460Z,13.70
2019-04-28T11:48:46.877Z,12.82
2019-04-28T11:51:15.316Z,18.00
2019-04-28T11:53:43.732Z,14.50
2019-04-28T11:56:12.152Z,11.15
2019-04-28T11:58:40.594Z,12.23
2019-04-28T12:01:10.315Z,11.22
2019-04-28T12:03:38.753Z,10.48
2019-04-28T12:06:07.175Z,10.88
2019-04-28T12:08:35.609Z,12.15
2019-04-28T12:11:23.564Z,14.53
2019-04-28T12:13:53.577Z,11.55
2019-04-28T12:16:39.602Z,12.40
2019-04-28T12:19:09.610Z,13.40
2019-04-28T12:21:38.066Z,11.93
2019-04-28T12:24:06.454Z,17.57
2019-04-28T12:26:34.892Z,14.95
2019-04-28T12:29:03.309Z,13.13
2019-04-28T12:31:31.753Z,13.03
2019-04-28T12:34:00.168Z,13.45
2019-04-28T12:36:28.616Z,18.67
2019-04-28T12:38:57.024Z,14.47
2019-04-28T12:41:25.460Z,12.90
2019-04-28T12:43:53.883Z,13.15
2019-04-28T12:46:22.320Z,19.25
2019-04-28T12:48:52.303Z,16.42
2019-04-28T12:51:20.743Z,12.95
2019-04-28T12:53:50.754Z,13.32
2019-04-28T12:56:19.179Z,10.32
2019-04-28T12:58:48.220Z,12.70
2019-04-28T13:01:30.276Z,10.03
2019-04-28T13:04:18.248Z,12.63
2019-04-28T13:07:02.616Z,10.15
2019-04-28T13:09:31.053Z,13.85
2019-04-28T13:11:59.484Z,9.20
2019-04-28T13:14:27.928Z,28.45
2019-04-28T13:16:56.351Z,26.82
2019-04-28T13:19:24.788Z,11.57
2019-04-28T13:21:53.207Z,10.80
2019-04-28T13:24:21.649Z,11.68
2019-04-28T13:26:52.224Z,10.63
2019-04-28T13:29:20.178Z,9.23
2019-04-28T13:31:48.597Z,10.98
2019-04-28T13:34:18.601Z,14.45
2019-04-28T13:36:47.030Z,9.78
2019-04-28T13:39:17.023Z,10.23
2019-04-28T13:41:45.456Z,8.10
2019-04-28T13:44:15.443Z,12.05
2019-04-28T13:46:43.892Z,11.28
2019-04-28T13:49:13.895Z,13.58
2019-04-28T13:51:42.337Z,8.73
2019-04-28T13:54:12.346Z,8.08
2019-04-28T13:56:40.781Z,6.33
2019-04-28T13:59:10.799Z,8.65
2019-04-28T14:01:40.811Z,6.70
2019-04-28T14:04:10.784Z,8.43
2019-04-28T14:06:40.781Z,8.23
2019-04-28T14:09:10.711Z,6.22
2019-04-28T14:11:39.120Z,7.75
2019-04-28T14:14:07.551Z,7.45
2019-04-28T14:16:35.984Z,10.28
2019-04-28T14:19:04.408Z,6.05
2019-04-28T14:21:32.905Z,6.78
2019-04-28T14:24:02.883Z,10.50
2019-04-28T14:26:31.356Z,10.15
2019-04-28T14:29:00.872Z,7.62
2019-04-28T14:31:29.889Z,6.80
2019-04-28T14:33:58.325Z,10.20
2019-04-28T14:36:26.756Z,24.05
2019-04-28T14:38:55.208Z,11.85
2019-04-28T14:41:23.746Z,8.95
2019-04-28T14:43:52.228Z,25.68
2019-04-28T14:46:20.674Z,10.50
2019-04-28T14:48:49.088Z,7.25
2019-04-28T14:51:17.504Z,9.58
2019-04-28T14:53:45.944Z,7.28
2019-04-28T14:56:14.409Z,10.03
2019-04-28T14:58:42.916Z,7.62
2019-04-28T15:01:12.944Z,6.22
2019-04-28T15:03:43.017Z,8.18
2019-04-28T15:06:13.047Z,8.13
2019-04-28T15:08:43.069Z,10.35
2019-04-28T15:11:13.150Z,8.20
2019-04-28T15:13:41.583Z,4.50
2019-04-28T15:16:10.019Z,7.33
2019-04-28T15:18:38.536Z,6.47
2019-04-28T15:21:06.980Z,5.22
2019-04-28T15:23:35.424Z,10.32
2019-04-28T15:26:03.932Z,6.92
2019-04-28T15:28:32.393Z,7.67
2019-04-28T15:31:01.235Z,7.95
2019-04-28T15:33:29.684Z,6.53
2019-04-28T15:35:58.201Z,6.08
2019-04-28T15:38:26.690Z,6.65
2019-04-28T15:40:55.137Z,10.65
2019-04-28T15:43:23.671Z,10.43
2019-04-28T15:45:52.123Z,10.50
2019-04-28T15:48:20.725Z,8.43
2019-04-28T15:50:49.159Z,10.95
2019-04-28T15:53:17.592Z,6.47
2019-04-28T15:55:53.336Z,5.22
2019-04-28T15:58:35.252Z,6.33
2019-04-28T16:01:03.664Z,5.15
2019-04-28T16:03:32.105Z,6.85
2019-04-28T16:06:00.512Z,9.78
2019-04-28T16:08:28.948Z,5.58
2019-04-28T16:10:57.365Z,5.72
2019-04-28T16:13:25.776Z,7.42
2019-04-28T16:15:54.213Z,11.38
2019-04-28T16:18:22.640Z,6.97
2019-04-28T16:20:51.079Z,7.58
2019-04-28T16:23:19.509Z,6.72
2019-04-28T16:25:47.940Z,5.50
2019-04-28T16:28:16.361Z,10.75
2019-04-28T16:30:44.799Z,5.45
2019-04-28T16:33:13.217Z,9.23
2019-04-28T16:35:41.655Z,5.25
2019-04-28T16:38:10.073Z,4.42
2019-04-28T16:40:40.501Z,9.20
2019-04-28T16:43:09.424Z,15.93
2019-04-28T16:45:37.845Z,9.55
2019-04-28T16:48:06.290Z,7.58
2019-04-28T16:50:34.707Z,6.40
2019-04-28T16:53:03.139Z,8.18
2019-04-28T16:55:38.811Z,7.15
2019-04-28T16:58:08.823Z,5.78
2019-04-28T17:00:50.741Z,6.17
2019-04-28T17:03:19.179Z,5.53
2019-04-28T17:05:47.635Z,7.90
2019-04-28T17:08:16.029Z,5.03
2019-04-28T17:10:44.453Z,5.33
2019-04-28T17:13:12.884Z,6.90
2019-04-28T17:15:41.311Z,11.00
2019-04-28T17:18:09.741Z,6.22
2019-04-28T17:20:38.156Z,4.50
2019-04-28T17:23:27.688Z,4.87
2019-04-28T17:25:56.112Z,6.92
2019-04-28T17:28:24.537Z,5.62
2019-04-28T17:30:52.952Z,7.65
2019-04-28T17:33:21.392Z,10.08
2019-04-28T17:35:49.805Z,7.15
2019-04-28T17:38:18.220Z,7.72
2019-04-28T17:40:47.192Z,5.95
2019-04-28T17:43:15.596Z,11.08
2019-04-28T17:45:44.012Z,7.33
2019-04-28T17:48:20.061Z,4.37
2019-04-28T17:50:48.494Z,2.95
2019-04-28T17:53:16.876Z,6.47
2019-04-28T17:55:45.266Z,3.50
2019-04-28T17:58:13.622Z,4.45
2019-04-28T18:00:55.811Z,5.87
2019-04-28T18:03:34.778Z,9.08
2019-04-28T18:06:17.058Z,7.47
2019-04-28T18:08:35.369Z,6.00
2019-04-28T18:11:03.871Z,6.08
2019-04-28T18:13:32.295Z,4.30
2019-04-28T18:16:08.292Z,7.55
2019-04-28T18:18:38.248Z,7.25
2019-04-28T18:21:06.635Z,6.50
2019-04-28T18:23:35.029Z,5.22
2019-04-28T18:26:03.400Z,5.78
2019-04-28T18:28:31.803Z,10.23
2019-04-28T18:31:07.804Z,7.50
2019-04-28T18:33:40.249Z,10.03
2019-04-28T18:36:22.393Z,4.08
2019-04-28T18:38:52.444Z,7.62
2019-04-28T18:41:38.856Z,5.60
2019-04-28T18:44:21.112Z,6.60
2019-04-28T18:46:49.514Z,6.25
2019-04-28T18:49:18.012Z,5.78
2019-04-28T18:51:46.422Z,8.23
2019-04-28T18:54:14.960Z,6.92
2019-04-28T18:56:43.404Z,5.83
2019-04-28T18:59:11.867Z,5.50
2019-04-28T19:01:41.856Z,7.47
2019-04-28T19:04:10.287Z,6.73
2019-04-28T19:06:38.698Z,5.12
2019-04-28T19:09:25.145Z,8.15
2019-04-28T19:12:11.340Z,7.37
2019-04-28T19:14:41.319Z,5.33
2019-04-28T19:17:11.306Z,6.27
2019-04-28T19:19:42.920Z,8.68
2019-04-28T19:22:11.338Z,3.15
2019-04-28T19:24:39.789Z,5.75
2019-04-28T19:27:08.204Z,5.90
2019-04-28T19:29:36.616Z,5.35
2019-04-28T19:32:05.048Z,7.12
2019-04-28T19:34:33.464Z,4.15
2019-04-28T19:37:01.968Z,8.50
2019-04-28T19:39:30.510Z,4.50
2019-04-28T19:41:58.920Z,5.83
2019-04-28T19:44:27.341Z,5.33
2019-04-28T19:46:55.785Z,11.95
2019-04-28T19:49:24.199Z,6.00
2019-04-28T19:51:52.702Z,5.30
2019-04-28T19:54:22.686Z,8.33
2019-04-28T19:56:52.768Z,6.07
2019-04-28T19:59:25.812Z,11.00
2019-04-28T20:01:54.240Z,4.45
2019-04-28T20:04:22.660Z,4.62
2019-04-28T20:06:51.075Z,8.95
2019-04-28T20:09:23.095Z,3.77
2019-04-28T20:11:51.881Z,4.30
2019-04-28T20:14:20.416Z,7.62
2019-04-28T20:16:48.836Z,5.00
2019-04-28T20:19:17.268Z,5.37
2019-04-28T20:21:45.676Z,4.80
2019-04-28T20:24:14.116Z,3.85
2019-04-28T20:26:42.536Z,4.00
2019-04-28T20:29:10.964Z,7.78
2019-04-28T20:31:39.380Z,5.90
2019-04-28T20:34:07.793Z,4.00
2019-04-28T20:36:40.576Z,6.00
2019-04-28T20:39:10.557Z,5.90
2019-04-28T20:41:38.992Z,4.43
2019-04-28T20:44:07.410Z,5.70
2019-04-28T20:46:35.844Z,3.58
2019-04-28T20:49:04.253Z,6.50
2019-04-28T20:51:32.680Z,5.22
2019-04-28T20:54:02.025Z,6.53
2019-04-28T20:56:30.456Z,3.05
2019-04-28T20:58:58.868Z,5.95
2019-04-28T21:01:27.314Z,6.50
2019-04-28T21:03:55.725Z,9.85
2019-04-28T21:06:24.167Z,4.53
2019-04-28T21:08:52.577Z,4.35
2019-04-28T21:11:20.988Z,2.75
2019-04-28T21:13:49.425Z,10.40
2019-04-28T21:16:17.838Z,7.28
2019-04-28T21:18:46.276Z,4.55
2019-04-28T21:21:14.686Z,4.37
2019-04-28T21:23:43.125Z,5.30
2019-04-28T21:26:11.833Z,4.28
2019-04-28T21:28:40.271Z,6.80
2019-04-28T21:31:08.685Z,7.55
2019-04-28T21:33:37.112Z,9.83
2019-04-28T21:36:05.531Z,3.72
2019-04-28T21:38:33.941Z,5.08
2019-04-28T21:41:02.414Z,6.20
2019-04-28T21:43:35.173Z,4.12
2019-04-28T21:46:07.984Z,4.67
2019-04-28T21:48:50.051Z,5.03
2019-04-28T21:51:18.457Z,6.97
2019-04-28T21:53:46.888Z,6.47
2019-04-28T21:56:15.303Z,11.30
2019-04-28T21:58:43.716Z,5.65
2019-04-28T22:01:13.857Z,10.95
2019-04-28T22:03:42.272Z,9.98
2019-04-28T22:06:10.710Z,4.08
2019-04-28T22:08:39.142Z,5.83
2019-04-28T22:11:07.552Z,7.20
2019-04-28T22:13:35.983Z,4.15
2019-04-28T22:16:04.401Z,3.67
2019-04-28T22:18:32.828Z,3.50
2019-04-28T22:21:01.241Z,5.35
2019-04-28T22:23:36.996Z,6.00
2019-04-28T22:26:05.408Z,5.08
2019-04-28T22:28:33.849Z,3.60
2019-04-28T22:31:02.263Z,3.60
2019-04-28T22:33:30.699Z,5.85
2019-04-28T22:35:59.117Z,10.45
2019-04-28T22:38:29.117Z,4.70
2019-04-28T22:40:57.529Z,11.13
2019-04-28T22:43:25.960Z,4.75
2019-04-28T22:45:54.376Z,4.35
2019-04-28T22:48:24.311Z,4.00
2019-04-28T22:50:52.736Z,3.40
2019-04-28T22:53:22.724Z,3.98
2019-04-28T22:56:04.726Z,4.30
2019-04-28T22:58:40.510Z,11.28
2019-04-28T23:01:13.295Z,5.92
2019-04-28T23:03:49.033Z,4.62
2019-04-28T23:06:17.450Z,3.52
2019-04-28T23:08:45.864Z,3.98
2019-04-28T23:11:14.303Z,3.37
2019-04-28T23:13:42.716Z,3.20
2019-04-28T23:16:11.097Z,6.37
2019-04-28T23:18:39.457Z,5.35
2019-04-28T23:21:21.227Z,5.22
2019-04-28T23:23:49.592Z,5.92
2019-04-28T23:26:17.974Z,7.00
2019-04-28T23:28:46.340Z,4.10
2019-04-28T23:31:14.720Z,3.90
2019-04-28T23:33:43.090Z,3.45
2019-04-28T23:36:11.508Z,5.33
2019-04-28T23:38:42.417Z,3.98
2019-04-28T23:41:17.399Z,6.77
2019-04-28T23:43:45.831Z,4.10
2019-04-28T23:46:14.241Z,5.30
2019-04-28T23:48:42.679Z,5.25
2019-04-28T23:51:15.587Z,5.20
2019-04-28T23:53:57.347Z,4.62
2019-04-28T23:56:26.763Z,6.97
2019-04-28T23:58:55.192Z,2.75
